sensor_id;sensor_type;location;lat;lon;timestamp;P1;durP1;ratioP1;P2;durP2;ratioP2
74227;SDS011;62587;52.352;5.006;2022-08-18T00:02:24;3.88;;;2.70;;
74227;SDS011;62587;52.352;5.006;2022-08-18T00:04:51;3.85;;;2.88;;
74227;SDS011;62587;52.352;5.006;2022-08-18T00:07:23;3.03;;;2.60;;
74227;SDS011;62587;52.352;5.006;2022-08-18T00:09:54;3.58;;;2.80;;
74227;SDS011;62587;52.352;5.006;2022-08-18T00:12:24;3.33;;;2.70;;
74227;SDS011;62587;52.352;5.006;2022-08-18T00:14:52;2.92;;;2.67;;
74227;SDS011;62587;52.352;5.006;2022-08-18T00:17:18;3.55;;;3.03;;
74227;SDS011;62587;52.352;5.006;2022-08-18T00:19:44;3.22;;;2.70;;
74227;SDS011;62587;52.352;5.006;2022-08-18T00:22:11;3.42;;;2.80;;
74227;SDS011;62587;52.352;5.006;2022-08-18T00:24:39;3.58;;;2.90;;
74227;SDS011;62587;52.352;5.006;2022-08-18T00:27:05;4.50;;;3.10;;
74227;SDS011;62587;52.352;5.006;2022-08-18T00:29:30;4.03;;;3.33;;
74227;SDS011;62587;52.352;5.006;2022-08-18T00:31:56;4.30;;;2.88;;
74227;SDS011;62587;52.352;5.006;2022-08-18T00:34:22;4.50;;;2.83;;
74227;SDS011;62587;52.352;5.006;2022-08-18T00:36:48;4.32;;;2.60;;
74227;SDS011;62587;52.352;5.006;2022-08-18T00:39:14;3.63;;;2.50;;
74227;SDS011;62587;52.352;5.006;2022-08-18T00:41:40;3.40;;;2.85;;
74227;SDS011;62587;52.352;5.006;2022-08-18T00:44:06;4.25;;;3.00;;
74227;SDS011;62587;52.352;5.006;2022-08-18T00:46:32;4.32;;;3.03;;
74227;SDS011;62587;52.352;5.006;2022-08-18T00:48:59;4.53;;;2.83;;
74227;SDS011;62587;52.352;5.006;2022-08-18T00:56:45;3.47;;;2.90;;
74227;SDS011;62587;52.352;5.006;2022-08-18T00:59:15;4.85;;;3.40;;
74227;SDS011;62587;52.352;5.006;2022-08-18T01:01:45;5.95;;;3.45;;
74227;SDS011;62587;52.352;5.006;2022-08-18T01:04:15;5.15;;;3.45;;
74227;SDS011;62587;52.352;5.006;2022-08-18T01:06:49;3.90;;;2.97;;
74227;SDS011;62587;52.352;5.006;2022-08-18T01:09:19;4.40;;;2.80;;
74227;SDS011;62587;52.352;5.006;2022-08-18T01:11:45;4.35;;;3.30;;
74227;SDS011;62587;52.352;5.006;2022-08-18T01:14:10;6.45;;;3.50;;
74227;SDS011;62587;52.352;5.006;2022-08-18T01:16:42;4.35;;;2.90;;
74227;SDS011;62587;52.352;5.006;2022-08-18T01:19:28;5.55;;;3.10;;
74227;SDS011;62587;52.352;5.006;2022-08-18T01:24:57;4.43;;;3.10;;
74227;SDS011;62587;52.352;5.006;2022-08-18T01:27:43;3.80;;;3.03;;
74227;SDS011;62587;52.352;5.006;2022-08-18T01:30:10;5.87;;;3.17;;
74227;SDS011;62587;52.352;5.006;2022-08-18T01:32:39;3.28;;;2.97;;
74227;SDS011;62587;52.352;5.006;2022-08-18T01:35:07;4.03;;;3.25;;
74227;SDS011;62587;52.352;5.006;2022-08-18T01:37:34;4.28;;;3.10;;
74227;SDS011;62587;52.352;5.006;2022-08-18T01:40:00;3.80;;;3.15;;
74227;SDS011;62587;52.352;5.006;2022-08-18T01:42:30;4.68;;;3.50;;
74227;SDS011;62587;52.352;5.006;2022-08-18T01:44:55;3.53;;;3.13;;
74227;SDS011;62587;52.352;5.006;2022-08-18T01:47:21;6.60;;;2.90;;
74227;SDS011;62587;52.352;5.006;2022-08-18T01:49:46;4.97;;;3.20;;
74227;SDS011;62587;52.352;5.006;2022-08-18T01:52:15;4.50;;;3.38;;
74227;SDS011;62587;52.352;5.006;2022-08-18T01:54:44;6.03;;;3.35;;
74227;SDS011;62587;52.352;5.006;2022-08-18T01:57:10;4.07;;;2.90;;
74227;SDS011;62587;52.352;5.006;2022-08-18T01:59:37;4.03;;;2.70;;
74227;SDS011;62587;52.352;5.006;2022-08-18T02:02:03;4.32;;;3.30;;
74227;SDS011;62587;52.352;5.006;2022-08-18T02:04:29;4.45;;;3.15;;
74227;SDS011;62587;52.352;5.006;2022-08-18T02:07:00;3.42;;;3.10;;
74227;SDS011;62587;52.352;5.006;2022-08-18T02:09:27;3.28;;;2.95;;
74227;SDS011;62587;52.352;5.006;2022-08-18T02:11:53;3.63;;;3.22;;
74227;SDS011;62587;52.352;5.006;2022-08-18T02:14:19;3.58;;;3.00;;
74227;SDS011;62587;52.352;5.006;2022-08-18T02:16:44;4.93;;;3.10;;
74227;SDS011;62587;52.352;5.006;2022-08-18T02:19:10;3.42;;;3.13;;
74227;SDS011;62587;52.352;5.006;2022-08-18T02:21:36;3.35;;;3.05;;
74227;SDS011;62587;52.352;5.006;2022-08-18T02:24:02;3.22;;;2.92;;
74227;SDS011;62587;52.352;5.006;2022-08-18T02:26:27;4.65;;;3.22;;
74227;SDS011;62587;52.352;5.006;2022-08-18T02:28:53;4.90;;;3.65;;
74227;SDS011;62587;52.352;5.006;2022-08-18T02:31:20;3.72;;;2.95;;
74227;SDS011;62587;52.352;5.006;2022-08-18T02:33:47;4.13;;;3.05;;
74227;SDS011;62587;52.352;5.006;2022-08-18T02:36:13;5.10;;;3.10;;
74227;SDS011;62587;52.352;5.006;2022-08-18T02:38:39;4.43;;;3.55;;
74227;SDS011;62587;52.352;5.006;2022-08-18T02:41:06;4.05;;;3.00;;
74227;SDS011;62587;52.352;5.006;2022-08-18T02:43:34;3.75;;;2.95;;
74227;SDS011;62587;52.352;5.006;2022-08-18T02:46:00;4.85;;;3.50;;
74227;SDS011;62587;52.352;5.006;2022-08-18T02:48:26;3.80;;;3.03;;
74227;SDS011;62587;52.352;5.006;2022-08-18T02:53:34;3.60;;;2.63;;
74227;SDS011;62587;52.352;5.006;2022-08-18T02:56:07;4.32;;;3.05;;
74227;SDS011;62587;52.352;5.006;2022-08-18T02:58:49;4.20;;;3.33;;
74227;SDS011;62587;52.352;5.006;2022-08-18T03:01:18;3.70;;;2.70;;
74227;SDS011;62587;52.352;5.006;2022-08-18T03:03:45;4.63;;;2.85;;
74227;SDS011;62587;52.352;5.006;2022-08-18T03:06:11;4.22;;;3.22;;
74227;SDS011;62587;52.352;5.006;2022-08-18T03:08:37;3.67;;;3.17;;
74227;SDS011;62587;52.352;5.006;2022-08-18T03:11:02;3.28;;;2.90;;
74227;SDS011;62587;52.352;5.006;2022-08-18T03:13:27;4.10;;;2.90;;
74227;SDS011;62587;52.352;5.006;2022-08-18T03:15:54;3.42;;;2.83;;
74227;SDS011;62587;52.352;5.006;2022-08-18T03:18:20;4.80;;;3.30;;
74227;SDS011;62587;52.352;5.006;2022-08-18T03:20:47;3.30;;;2.75;;
74227;SDS011;62587;52.352;5.006;2022-08-18T03:23:13;3.58;;;3.28;;
74227;SDS011;62587;52.352;5.006;2022-08-18T03:25:42;5.00;;;3.08;;
74227;SDS011;62587;52.352;5.006;2022-08-18T03:28:10;4.03;;;3.13;;
74227;SDS011;62587;52.352;5.006;2022-08-18T03:30:36;3.50;;;3.10;;
74227;SDS011;62587;52.352;5.006;2022-08-18T03:33:01;3.80;;;2.85;;
74227;SDS011;62587;52.352;5.006;2022-08-18T03:35:27;4.30;;;3.00;;
74227;SDS011;62587;52.352;5.006;2022-08-18T03:37:52;6.43;;;3.20;;
74227;SDS011;62587;52.352;5.006;2022-08-18T03:40:19;3.15;;;2.85;;
74227;SDS011;62587;52.352;5.006;2022-08-18T03:42:45;4.35;;;3.08;;
74227;SDS011;62587;52.352;5.006;2022-08-18T03:45:10;4.33;;;2.80;;
74227;SDS011;62587;52.352;5.006;2022-08-18T03:47:35;4.37;;;3.30;;
74227;SDS011;62587;52.352;5.006;2022-08-18T03:50:01;3.80;;;3.08;;
74227;SDS011;62587;52.352;5.006;2022-08-18T03:52:26;4.28;;;2.83;;
74227;SDS011;62587;52.352;5.006;2022-08-18T03:54:51;4.90;;;3.00;;
74227;SDS011;62587;52.352;5.006;2022-08-18T03:57:18;4.88;;;2.63;;
74227;SDS011;62587;52.352;5.006;2022-08-18T03:59:43;4.75;;;3.13;;
74227;SDS011;62587;52.352;5.006;2022-08-18T04:02:09;3.70;;;2.80;;
74227;SDS011;62587;52.352;5.006;2022-08-18T04:04:35;5.43;;;3.00;;
74227;SDS011;62587;52.352;5.006;2022-08-18T04:07:11;3.20;;;2.63;;
74227;SDS011;62587;52.352;5.006;2022-08-18T04:09:38;3.50;;;2.95;;
74227;SDS011;62587;52.352;5.006;2022-08-18T04:12:09;3.67;;;2.83;;
74227;SDS011;62587;52.352;5.006;2022-08-18T04:14:37;4.70;;;2.85;;
74227;SDS011;62587;52.352;5.006;2022-08-18T04:17:05;5.40;;;2.95;;
74227;SDS011;62587;52.352;5.006;2022-08-18T04:19:31;4.13;;;2.85;;
74227;SDS011;62587;52.352;5.006;2022-08-18T04:21:58;4.43;;;3.00;;
74227;SDS011;62587;52.352;5.006;2022-08-18T04:24:25;4.18;;;2.92;;
74227;SDS011;62587;52.352;5.006;2022-08-18T04:26:53;3.78;;;2.72;;
74227;SDS011;62587;52.352;5.006;2022-08-18T04:29:20;3.60;;;2.80;;
74227;SDS011;62587;52.352;5.006;2022-08-18T04:31:46;5.38;;;3.03;;
74227;SDS011;62587;52.352;5.006;2022-08-18T04:34:12;3.47;;;3.00;;
74227;SDS011;62587;52.352;5.006;2022-08-18T04:36:38;4.55;;;3.00;;
74227;SDS011;62587;52.352;5.006;2022-08-18T04:39:06;3.85;;;3.10;;
74227;SDS011;62587;52.352;5.006;2022-08-18T04:41:33;5.60;;;3.40;;
74227;SDS011;62587;52.352;5.006;2022-08-18T04:44:01;4.45;;;3.00;;
74227;SDS011;62587;52.352;5.006;2022-08-18T04:46:28;3.83;;;3.15;;
74227;SDS011;62587;52.352;5.006;2022-08-18T04:48:56;4.40;;;3.22;;
74227;SDS011;62587;52.352;5.006;2022-08-18T04:51:26;4.35;;;3.15;;
74227;SDS011;62587;52.352;5.006;2022-08-18T04:53:53;5.28;;;3.08;;
74227;SDS011;62587;52.352;5.006;2022-08-18T04:56:20;3.42;;;3.10;;
74227;SDS011;62587;52.352;5.006;2022-08-18T05:01:27;3.67;;;3.10;;
74227;SDS011;62587;52.352;5.006;2022-08-18T05:03:54;4.07;;;2.92;;
74227;SDS011;62587;52.352;5.006;2022-08-18T05:06:22;5.35;;;3.00;;
74227;SDS011;62587;52.352;5.006;2022-08-18T05:11:16;5.60;;;3.33;;
74227;SDS011;62587;52.352;5.006;2022-08-18T05:13:41;4.32;;;3.50;;
74227;SDS011;62587;52.352;5.006;2022-08-18T05:16:07;4.47;;;2.92;;
74227;SDS011;62587;52.352;5.006;2022-08-18T05:18:34;4.57;;;3.55;;
74227;SDS011;62587;52.352;5.006;2022-08-18T05:21:04;4.38;;;3.45;;
74227;SDS011;62587;52.352;5.006;2022-08-18T05:23:42;4.88;;;3.47;;
74227;SDS011;62587;52.352;5.006;2022-08-18T05:26:10;5.95;;;3.42;;
74227;SDS011;62587;52.352;5.006;2022-08-18T05:28:38;4.75;;;3.25;;
74227;SDS011;62587;52.352;5.006;2022-08-18T05:31:11;4.60;;;3.58;;
74227;SDS011;62587;52.352;5.006;2022-08-18T05:33:43;3.85;;;3.20;;
74227;SDS011;62587;52.352;5.006;2022-08-18T05:44:32;5.47;;;2.70;;
74227;SDS011;62587;52.352;5.006;2022-08-18T05:47:22;5.78;;;3.08;;
74227;SDS011;62587;52.352;5.006;2022-08-18T05:49:46;3.60;;;3.25;;
74227;SDS011;62587;52.352;5.006;2022-08-18T05:52:26;5.93;;;3.20;;
74227;SDS011;62587;52.352;5.006;2022-08-18T05:54:59;4.90;;;3.03;;
74227;SDS011;62587;52.352;5.006;2022-08-18T05:58:03;3.72;;;3.05;;
74227;SDS011;62587;52.352;5.006;2022-08-18T06:00:32;3.30;;;2.80;;
74227;SDS011;62587;52.352;5.006;2022-08-18T06:03:04;3.78;;;2.60;;
74227;SDS011;62587;52.352;5.006;2022-08-18T06:05:40;3.55;;;2.78;;
74227;SDS011;62587;52.352;5.006;2022-08-18T06:08:19;5.22;;;2.78;;
74227;SDS011;62587;52.352;5.006;2022-08-18T06:10:49;3.65;;;2.63;;
74227;SDS011;62587;52.352;5.006;2022-08-18T06:13:15;4.60;;;2.50;;
74227;SDS011;62587;52.352;5.006;2022-08-18T06:18:58;3.88;;;2.60;;
74227;SDS011;62587;52.352;5.006;2022-08-18T06:40:41;3.75;;;2.63;;
74227;SDS011;62587;52.352;5.006;2022-08-18T06:43:08;3.85;;;2.60;;
74227;SDS011;62587;52.352;5.006;2022-08-18T06:45:39;3.85;;;2.40;;
74227;SDS011;62587;52.352;5.006;2022-08-18T06:48:24;4.47;;;2.38;;
74227;SDS011;62587;52.352;5.006;2022-08-18T06:51:02;2.63;;;2.33;;
74227;SDS011;62587;52.352;5.006;2022-08-18T06:56:21;3.65;;;2.38;;
74227;SDS011;62587;52.352;5.006;2022-08-18T07:01:43;4.25;;;2.20;;
74227;SDS011;62587;52.352;5.006;2022-08-18T07:04:28;3.45;;;2.20;;
74227;SDS011;62587;52.352;5.006;2022-08-18T07:06:54;3.97;;;2.25;;
74227;SDS011;62587;52.352;5.006;2022-08-18T07:09:21;3.07;;;2.17;;
74227;SDS011;62587;52.352;5.006;2022-08-18T07:14:26;2.83;;;2.38;;
74227;SDS011;62587;52.352;5.006;2022-08-18T07:17:26;3.53;;;2.50;;
74227;SDS011;62587;52.352;5.006;2022-08-18T07:19:55;3.90;;;2.53;;
74227;SDS011;62587;52.352;5.006;2022-08-18T07:22:26;3.83;;;2.35;;
74227;SDS011;62587;52.352;5.006;2022-08-18T07:24:52;3.80;;;2.20;;
74227;SDS011;62587;52.352;5.006;2022-08-18T07:27:21;3.83;;;2.50;;
74227;SDS011;62587;52.352;5.006;2022-08-18T07:30:11;3.20;;;2.58;;
74227;SDS011;62587;52.352;5.006;2022-08-18T07:32:53;9.20;;;3.35;;
74227;SDS011;62587;52.352;5.006;2022-08-18T07:35:32;7.57;;;3.45;;
74227;SDS011;62587;52.352;5.006;2022-08-18T07:38:14;7.82;;;3.10;;
74227;SDS011;62587;52.352;5.006;2022-08-18T07:40:47;9.30;;;3.63;;
74227;SDS011;62587;52.352;5.006;2022-08-18T07:45:51;5.03;;;3.30;;
74227;SDS011;62587;52.352;5.006;2022-08-18T07:48:24;9.73;;;3.53;;
74227;SDS011;62587;52.352;5.006;2022-08-18T07:56:42;7.50;;;3.60;;
74227;SDS011;62587;52.352;5.006;2022-08-18T07:59:40;6.28;;;3.45;;
74227;SDS011;62587;52.352;5.006;2022-08-18T08:02:22;6.07;;;3.50;;
74227;SDS011;62587;52.352;5.006;2022-08-18T08:15:42;5.07;;;3.45;;
74227;SDS011;62587;52.352;5.006;2022-08-18T08:21:04;7.55;;;3.15;;
74227;SDS011;62587;52.352;5.006;2022-08-18T08:26:21;4.25;;;3.08;;
74227;SDS011;62587;52.352;5.006;2022-08-18T08:29:01;6.72;;;3.70;;
74227;SDS011;62587;52.352;5.006;2022-08-18T08:31:47;4.72;;;3.50;;
74227;SDS011;62587;52.352;5.006;2022-08-18T08:36:59;5.68;;;3.35;;
74227;SDS011;62587;52.352;5.006;2022-08-18T08:39:31;5.25;;;3.72;;
74227;SDS011;62587;52.352;5.006;2022-08-18T08:47:40;6.03;;;3.45;;
74227;SDS011;62587;52.352;5.006;2022-08-18T08:50:15;6.07;;;3.55;;
74227;SDS011;62587;52.352;5.006;2022-08-18T08:53:05;4.45;;;3.40;;
74227;SDS011;62587;52.352;5.006;2022-08-18T08:55:52;4.00;;;3.05;;
74227;SDS011;62587;52.352;5.006;2022-08-18T08:58:23;4.03;;;3.55;;
74227;SDS011;62587;52.352;5.006;2022-08-18T09:00:50;3.97;;;3.30;;
74227;SDS011;62587;52.352;5.006;2022-08-18T09:09:45;6.15;;;3.50;;
74227;SDS011;62587;52.352;5.006;2022-08-18T09:12:22;3.58;;;3.28;;
74227;SDS011;62587;52.352;5.006;2022-08-18T09:15:41;4.78;;;3.10;;
74227;SDS011;62587;52.352;5.006;2022-08-18T09:23:09;4.18;;;3.28;;
74227;SDS011;62587;52.352;5.006;2022-08-18T09:25:43;4.78;;;3.25;;
74227;SDS011;62587;52.352;5.006;2022-08-18T09:28:10;3.05;;;2.75;;
74227;SDS011;62587;52.352;5.006;2022-08-18T09:30:41;5.18;;;3.08;;
74227;SDS011;62587;52.352;5.006;2022-08-18T09:36:44;3.80;;;2.92;;
74227;SDS011;62587;52.352;5.006;2022-08-18T09:39:17;4.47;;;3.03;;
74227;SDS011;62587;52.352;5.006;2022-08-18T09:42:47;5.07;;;3.25;;
74227;SDS011;62587;52.352;5.006;2022-08-18T09:45:00;3.20;;;2.90;;
74227;SDS011;62587;52.352;5.006;2022-08-18T09:50:30;3.93;;;2.80;;
74227;SDS011;62587;52.352;5.006;2022-08-18T09:52:55;4.88;;;2.80;;
74227;SDS011;62587;52.352;5.006;2022-08-18T09:55:41;3.30;;;3.00;;
74227;SDS011;62587;52.352;5.006;2022-08-18T10:06:43;4.03;;;2.97;;
74227;SDS011;62587;52.352;5.006;2022-08-18T10:09:56;3.42;;;2.75;;
74227;SDS011;62587;52.352;5.006;2022-08-18T10:14:44;5.18;;;3.70;;
74227;SDS011;62587;52.352;5.006;2022-08-18T10:17:33;4.57;;;3.38;;
74227;SDS011;62587;52.352;5.006;2022-08-18T10:22:52;3.25;;;2.95;;
74227;SDS011;62587;52.352;5.006;2022-08-18T10:28:09;5.43;;;2.90;;
74227;SDS011;62587;52.352;5.006;2022-08-18T10:31:02;3.30;;;3.00;;
74227;SDS011;62587;52.352;5.006;2022-08-18T10:39:14;2.58;;;2.35;;
74227;SDS011;62587;52.352;5.006;2022-08-18T10:42:09;3.97;;;2.83;;
74227;SDS011;62587;52.352;5.006;2022-08-18T10:44:44;2.53;;;2.33;;
74227;SDS011;62587;52.352;5.006;2022-08-18T10:47:20;4.10;;;2.60;;
74227;SDS011;62587;52.352;5.006;2022-08-18T10:49:48;2.90;;;2.60;;
74227;SDS011;62587;52.352;5.006;2022-08-18T10:54:49;3.25;;;2.35;;
74227;SDS011;62587;52.352;5.006;2022-08-18T11:00:19;3.42;;;2.40;;
74227;SDS011;62587;52.352;5.006;2022-08-18T11:06:06;4.65;;;2.25;;
74227;SDS011;62587;52.352;5.006;2022-08-18T11:08:43;4.63;;;2.53;;
74227;SDS011;62587;52.352;5.006;2022-08-18T11:11:12;2.65;;;2.45;;
74227;SDS011;62587;52.352;5.006;2022-08-18T11:19:18;3.38;;;3.00;;
74227;SDS011;62587;52.352;5.006;2022-08-18T11:21:47;3.13;;;2.83;;
74227;SDS011;62587;52.352;5.006;2022-08-18T11:24:15;3.60;;;2.80;;
74227;SDS011;62587;52.352;5.006;2022-08-18T11:26:46;3.28;;;2.80;;
74227;SDS011;62587;52.352;5.006;2022-08-18T11:31:58;4.28;;;2.47;;
74227;SDS011;62587;52.352;5.006;2022-08-18T11:34:33;4.60;;;2.63;;
74227;SDS011;62587;52.352;5.006;2022-08-18T11:37:03;4.43;;;3.20;;
74227;SDS011;62587;52.352;5.006;2022-08-18T11:39:31;3.20;;;2.58;;
74227;SDS011;62587;52.352;5.006;2022-08-18T11:41:57;2.60;;;2.40;;
74227;SDS011;62587;52.352;5.006;2022-08-18T11:44:24;3.10;;;2.67;;
74227;SDS011;62587;52.352;5.006;2022-08-18T11:47:06;3.42;;;2.70;;
74227;SDS011;62587;52.352;5.006;2022-08-18T11:49:53;2.88;;;2.50;;
74227;SDS011;62587;52.352;5.006;2022-08-18T11:52:32;4.10;;;2.80;;
74227;SDS011;62587;52.352;5.006;2022-08-18T11:55:17;3.72;;;2.22;;
74227;SDS011;62587;52.352;5.006;2022-08-18T11:57:52;2.47;;;2.08;;
74227;SDS011;62587;52.352;5.006;2022-08-18T12:03:03;2.97;;;2.60;;
74227;SDS011;62587;52.352;5.006;2022-08-18T12:05:39;2.30;;;2.10;;
74227;SDS011;62587;52.352;5.006;2022-08-18T12:08:47;2.20;;;1.80;;
74227;SDS011;62587;52.352;5.006;2022-08-18T12:11:18;3.25;;;2.45;;
74227;SDS011;62587;52.352;5.006;2022-08-18T12:13:47;2.65;;;2.28;;
74227;SDS011;62587;52.352;5.006;2022-08-18T12:16:39;3.95;;;1.80;;
74227;SDS011;62587;52.352;5.006;2022-08-18T12:19:06;2.88;;;1.95;;
74227;SDS011;62587;52.352;5.006;2022-08-18T12:21:38;2.03;;;1.83;;
74227;SDS011;62587;52.352;5.006;2022-08-18T12:24:06;2.42;;;1.90;;
74227;SDS011;62587;52.352;5.006;2022-08-18T12:26:41;2.53;;;1.63;;
74227;SDS011;62587;52.352;5.006;2022-08-18T12:29:06;3.25;;;2.00;;
74227;SDS011;62587;52.352;5.006;2022-08-18T12:31:32;2.40;;;1.80;;
74227;SDS011;62587;52.352;5.006;2022-08-18T12:33:57;3.03;;;1.85;;
74227;SDS011;62587;52.352;5.006;2022-08-18T12:36:22;1.90;;;1.60;;
74227;SDS011;62587;52.352;5.006;2022-08-18T12:38:48;2.30;;;1.80;;
74227;SDS011;62587;52.352;5.006;2022-08-18T12:41:14;3.92;;;2.70;;
74227;SDS011;62587;52.352;5.006;2022-08-18T12:43:39;3.25;;;2.60;;
74227;SDS011;62587;52.352;5.006;2022-08-18T12:46:05;2.90;;;2.17;;
74227;SDS011;62587;52.352;5.006;2022-08-18T12:48:30;2.95;;;1.80;;
74227;SDS011;62587;52.352;5.006;2022-08-18T12:50:56;2.80;;;2.50;;
74227;SDS011;62587;52.352;5.006;2022-08-18T12:53:22;2.95;;;2.33;;
74227;SDS011;62587;52.352;5.006;2022-08-18T12:55:48;2.63;;;2.20;;
74227;SDS011;62587;52.352;5.006;2022-08-18T12:58:14;2.20;;;1.85;;
74227;SDS011;62587;52.352;5.006;2022-08-18T13:00:39;3.13;;;2.20;;
74227;SDS011;62587;52.352;5.006;2022-08-18T13:03:05;2.20;;;1.60;;
74227;SDS011;62587;52.352;5.006;2022-08-18T13:05:31;3.33;;;2.03;;
74227;SDS011;62587;52.352;5.006;2022-08-18T13:07:59;2.40;;;1.60;;
74227;SDS011;62587;52.352;5.006;2022-08-18T13:10:26;2.20;;;1.60;;
74227;SDS011;62587;52.352;5.006;2022-08-18T13:12:52;2.78;;;1.70;;
74227;SDS011;62587;52.352;5.006;2022-08-18T13:15:17;2.38;;;1.60;;
74227;SDS011;62587;52.352;5.006;2022-08-18T13:17:43;2.72;;;1.80;;
74227;SDS011;62587;52.352;5.006;2022-08-18T13:20:10;3.30;;;2.05;;
74227;SDS011;62587;52.352;5.006;2022-08-18T13:22:37;3.95;;;2.00;;
74227;SDS011;62587;52.352;5.006;2022-08-18T13:25:05;2.35;;;1.70;;
74227;SDS011;62587;52.352;5.006;2022-08-18T13:27:32;2.65;;;1.80;;
74227;SDS011;62587;52.352;5.006;2022-08-18T13:29:58;3.30;;;1.50;;
74227;SDS011;62587;52.352;5.006;2022-08-18T13:32:24;2.50;;;1.73;;
74227;SDS011;62587;52.352;5.006;2022-08-18T13:34:50;2.30;;;1.55;;
74227;SDS011;62587;52.352;5.006;2022-08-18T13:37:15;3.00;;;1.73;;
74227;SDS011;62587;52.352;5.006;2022-08-18T13:39:42;1.85;;;1.48;;
74227;SDS011;62587;52.352;5.006;2022-08-18T13:42:07;2.70;;;1.65;;
74227;SDS011;62587;52.352;5.006;2022-08-18T13:44:32;1.75;;;1.63;;
74227;SDS011;62587;52.352;5.006;2022-08-18T13:46:58;3.00;;;1.73;;
74227;SDS011;62587;52.352;5.006;2022-08-18T13:49:23;1.75;;;1.60;;
74227;SDS011;62587;52.352;5.006;2022-08-18T13:51:49;1.90;;;1.60;;
74227;SDS011;62587;52.352;5.006;2022-08-18T13:54:22;2.45;;;1.60;;
74227;SDS011;62587;52.352;5.006;2022-08-18T13:56:50;9.55;;;1.80;;
74227;SDS011;62587;52.352;5.006;2022-08-18T13:59:17;6.13;;;1.67;;
74227;SDS011;62587;52.352;5.006;2022-08-18T14:01:44;4.88;;;1.80;;
74227;SDS011;62587;52.352;5.006;2022-08-18T14:04:10;3.20;;;1.67;;
74227;SDS011;62587;52.352;5.006;2022-08-18T14:06:37;3.13;;;1.70;;
74227;SDS011;62587;52.352;5.006;2022-08-18T14:09:03;5.45;;;1.83;;
74227;SDS011;62587;52.352;5.006;2022-08-18T14:11:29;2.17;;;1.45;;
74227;SDS011;62587;52.352;5.006;2022-08-18T14:13:56;3.88;;;1.63;;
74227;SDS011;62587;52.352;5.006;2022-08-18T14:16:24;3.33;;;1.67;;
74227;SDS011;62587;52.352;5.006;2022-08-18T14:18:50;2.05;;;1.83;;
74227;SDS011;62587;52.352;5.006;2022-08-18T14:21:51;3.67;;;2.25;;
74227;SDS011;62587;52.352;5.006;2022-08-18T14:24:36;5.03;;;1.92;;
74227;SDS011;62587;52.352;5.006;2022-08-18T14:27:27;4.45;;;1.90;;
74227;SDS011;62587;52.352;5.006;2022-08-18T14:29:58;3.45;;;1.95;;
74227;SDS011;62587;52.352;5.006;2022-08-18T14:32:25;2.83;;;2.00;;
74227;SDS011;62587;52.352;5.006;2022-08-18T14:34:54;2.90;;;1.65;;
74227;SDS011;62587;52.352;5.006;2022-08-18T14:37:20;2.45;;;1.67;;
74227;SDS011;62587;52.352;5.006;2022-08-18T14:39:45;3.67;;;1.70;;
74227;SDS011;62587;52.352;5.006;2022-08-18T14:42:12;3.90;;;1.70;;
74227;SDS011;62587;52.352;5.006;2022-08-18T14:44:39;2.63;;;1.52;;
74227;SDS011;62587;52.352;5.006;2022-08-18T14:47:04;3.08;;;1.52;;
74227;SDS011;62587;52.352;5.006;2022-08-18T14:49:30;2.15;;;1.80;;
74227;SDS011;62587;52.352;5.006;2022-08-18T14:51:58;3.13;;;2.05;;
74227;SDS011;62587;52.352;5.006;2022-08-18T14:54:25;2.30;;;1.63;;
74227;SDS011;62587;52.352;5.006;2022-08-18T14:56:50;2.03;;;1.58;;
74227;SDS011;62587;52.352;5.006;2022-08-18T14:59:16;2.15;;;1.60;;
74227;SDS011;62587;52.352;5.006;2022-08-18T15:01:41;2.17;;;1.47;;
74227;SDS011;62587;52.352;5.006;2022-08-18T15:04:07;3.08;;;1.60;;
74227;SDS011;62587;52.352;5.006;2022-08-18T15:06:34;2.30;;;1.67;;
74227;SDS011;62587;52.352;5.006;2022-08-18T15:09:00;3.85;;;2.10;;
74227;SDS011;62587;52.352;5.006;2022-08-18T15:11:25;3.43;;;2.30;;
74227;SDS011;62587;52.352;5.006;2022-08-18T15:13:50;3.00;;;2.37;;
74227;SDS011;62587;52.352;5.006;2022-08-18T15:16:16;2.92;;;2.00;;
74227;SDS011;62587;52.352;5.006;2022-08-18T15:18:42;3.00;;;2.70;;
74227;SDS011;62587;52.352;5.006;2022-08-18T15:21:09;2.53;;;2.10;;
74227;SDS011;62587;52.352;5.006;2022-08-18T15:23:54;3.60;;;2.40;;
74227;SDS011;62587;52.352;5.006;2022-08-18T15:26:38;4.18;;;2.40;;
74227;SDS011;62587;52.352;5.006;2022-08-18T15:29:04;2.75;;;2.20;;
74227;SDS011;62587;52.352;5.006;2022-08-18T15:31:33;2.55;;;2.15;;
74227;SDS011;62587;52.352;5.006;2022-08-18T15:33:59;4.68;;;2.42;;
74227;SDS011;62587;52.352;5.006;2022-08-18T15:36:24;3.22;;;2.47;;
74227;SDS011;62587;52.352;5.006;2022-08-18T15:38:50;4.28;;;3.10;;
74227;SDS011;62587;52.352;5.006;2022-08-18T15:41:36;3.13;;;2.72;;
74227;SDS011;62587;52.352;5.006;2022-08-18T15:44:05;4.78;;;3.53;;
74227;SDS011;62587;52.352;5.006;2022-08-18T15:46:32;5.25;;;4.22;;
74227;SDS011;62587;52.352;5.006;2022-08-18T15:48:59;3.80;;;3.40;;
74227;SDS011;62587;52.352;5.006;2022-08-18T15:51:25;4.38;;;3.28;;
74227;SDS011;62587;52.352;5.006;2022-08-18T15:53:51;3.85;;;3.30;;
74227;SDS011;62587;52.352;5.006;2022-08-18T15:56:21;6.00;;;3.38;;
74227;SDS011;62587;52.352;5.006;2022-08-18T15:58:49;3.67;;;3.05;;
74227;SDS011;62587;52.352;5.006;2022-08-18T16:01:15;3.65;;;3.05;;
74227;SDS011;62587;52.352;5.006;2022-08-18T16:03:43;4.35;;;3.00;;
74227;SDS011;62587;52.352;5.006;2022-08-18T16:06:16;3.08;;;2.78;;
74227;SDS011;62587;52.352;5.006;2022-08-18T16:08:43;3.30;;;2.70;;
74227;SDS011;62587;52.352;5.006;2022-08-18T16:11:10;3.17;;;2.60;;
74227;SDS011;62587;52.352;5.006;2022-08-18T16:13:36;2.78;;;2.50;;
74227;SDS011;62587;52.352;5.006;2022-08-18T16:16:09;3.10;;;2.50;;
74227;SDS011;62587;52.352;5.006;2022-08-18T16:18:37;3.67;;;3.08;;
74227;SDS011;62587;52.352;5.006;2022-08-18T16:21:04;2.90;;;2.50;;
74227;SDS011;62587;52.352;5.006;2022-08-18T16:23:34;2.42;;;2.22;;
74227;SDS011;62587;52.352;5.006;2022-08-18T16:26:00;2.95;;;2.30;;
74227;SDS011;62587;52.352;5.006;2022-08-18T16:28:26;3.65;;;2.25;;
74227;SDS011;62587;52.352;5.006;2022-08-18T16:30:51;2.33;;;2.13;;
74227;SDS011;62587;52.352;5.006;2022-08-18T16:33:18;2.90;;;2.58;;
74227;SDS011;62587;52.352;5.006;2022-08-18T16:35:44;3.05;;;2.47;;
74227;SDS011;62587;52.352;5.006;2022-08-18T16:38:11;2.63;;;2.25;;
74227;SDS011;62587;52.352;5.006;2022-08-18T16:40:37;3.45;;;2.10;;
74227;SDS011;62587;52.352;5.006;2022-08-18T16:43:05;2.40;;;1.92;;
74227;SDS011;62587;52.352;5.006;2022-08-18T16:45:31;2.53;;;2.05;;
74227;SDS011;62587;52.352;5.006;2022-08-18T16:47:58;2.72;;;2.05;;
74227;SDS011;62587;52.352;5.006;2022-08-18T16:50:24;2.70;;;1.90;;
74227;SDS011;62587;52.352;5.006;2022-08-18T16:52:50;2.17;;;1.98;;
74227;SDS011;62587;52.352;5.006;2022-08-18T16:55:15;3.65;;;2.30;;
74227;SDS011;62587;52.352;5.006;2022-08-18T16:57:42;3.97;;;2.20;;
74227;SDS011;62587;52.352;5.006;2022-08-18T17:00:26;3.05;;;2.30;;
74227;SDS011;62587;52.352;5.006;2022-08-18T17:03:11;2.38;;;2.05;;
74227;SDS011;62587;52.352;5.006;2022-08-18T17:06:02;3.00;;;2.17;;
74227;SDS011;62587;52.352;5.006;2022-08-18T17:08:33;2.38;;;2.00;;
74227;SDS011;62587;52.352;5.006;2022-08-18T17:11:02;4.03;;;1.98;;
74227;SDS011;62587;52.352;5.006;2022-08-18T17:13:29;3.05;;;2.05;;
74227;SDS011;62587;52.352;5.006;2022-08-18T17:15:55;2.97;;;2.17;;
74227;SDS011;62587;52.352;5.006;2022-08-18T17:18:21;2.20;;;2.00;;
74227;SDS011;62587;52.352;5.006;2022-08-18T17:20:46;2.33;;;2.00;;
74227;SDS011;62587;52.352;5.006;2022-08-18T17:23:12;2.72;;;1.98;;
74227;SDS011;62587;52.352;5.006;2022-08-18T17:25:37;2.47;;;1.73;;
74227;SDS011;62587;52.352;5.006;2022-08-18T17:28:03;2.70;;;2.00;;
74227;SDS011;62587;52.352;5.006;2022-08-18T17:30:29;2.15;;;1.85;;
74227;SDS011;62587;52.352;5.006;2022-08-18T17:33:01;2.92;;;2.20;;
74227;SDS011;62587;52.352;5.006;2022-08-18T17:35:36;3.25;;;2.33;;